createdAt,value
2022-12-23T00:00:38.719Z,8.90
2022-12-23T00:03:05.760Z,8.90
2022-12-23T00:05:38.206Z,8.90
2022-12-23T00:08:06.712Z,8.90
2022-12-23T00:10:34.991Z,8.90
2022-12-23T00:13:20.355Z,8.90
2022-12-23T00:15:47.076Z,8.90
2022-12-23T00:18:13.924Z,8.90
2022-12-23T00:20:40.652Z,8.90
2022-12-23T00:23:07.509Z,8.90
2022-12-23T00:25:43.869Z,8.90
2022-12-23T00:28:17.213Z,8.90
2022-12-23T00:31:08.625Z,8.90
2022-12-23T00:33:38.044Z,8.90
2022-12-23T00:36:19.293Z,8.90
2022-12-23T00:39:05.876Z,8.80
2022-12-23T00:41:51.440Z,8.80
2022-12-23T00:44:18.241Z,8.80
2022-12-23T00:46:45.045Z,8.80
2022-12-23T00:49:31.635Z,8.80
2022-12-23T00:51:58.583Z,8.80
2022-12-23T00:54:25.393Z,8.80
2022-12-23T00:56:52.134Z,8.80
2022-12-23T00:59:19.148Z,8.80
2022-12-23T01:02:05.144Z,8.80
2022-12-23T01:04:50.990Z,8.80
2022-12-23T01:07:21.646Z,8.80
2022-12-23T01:09:48.388Z,8.80
2022-12-23T01:12:15.136Z,8.80
2022-12-23T01:14:41.940Z,8.80
2022-12-23T01:17:09.071Z,8.80
2022-12-23T01:19:35.978Z,8.80
2022-12-23T01:22:02.968Z,8.80
2022-12-23T01:24:33.079Z,8.80
2022-12-23T01:27:00.383Z,8.80
2022-12-23T01:29:27.160Z,8.80
2022-12-23T01:31:54.045Z,8.80
2022-12-23T01:34:21.027Z,8.80
2022-12-23T01:36:47.863Z,8.90
2022-12-23T01:39:14.711Z,8.80
2022-12-23T01:42:00.010Z,8.80
2022-12-23T01:45:00.661Z,8.80
2022-12-23T01:47:30.113Z,8.80
2022-12-23T01:50:14.019Z,8.80
2022-12-23T01:52:47.598Z,8.80
2022-12-23T01:55:20.792Z,8.80
2022-12-23T01:57:48.717Z,8.90
2022-12-23T02:00:34.790Z,8.90
2022-12-23T02:03:20.409Z,8.90
2022-12-23T02:05:48.268Z,8.90
2022-12-23T02:08:35.416Z,8.80
2022-12-23T02:11:28.761Z,8.90
2022-12-23T02:14:43.142Z,8.90
2022-12-23T02:17:24.745Z,8.80
2022-12-23T02:20:13.791Z,8.90
2022-12-23T02:22:59.279Z,8.90
2022-12-23T02:25:53.788Z,8.90
2022-12-23T02:29:00.427Z,8.80
2022-12-23T02:31:35.971Z,8.90
2022-12-23T02:34:37.197Z,8.80
2022-12-23T02:37:13.023Z,8.80
2022-12-23T02:39:52.101Z,8.80
2022-12-23T02:42:24.196Z,8.80
2022-12-23T02:45:15.789Z,8.80
2022-12-23T02:47:48.316Z,8.70
2022-12-23T02:50:24.069Z,8.80
2022-12-23T02:52:52.386Z,8.80
2022-12-23T02:55:27.748Z,8.70
2022-12-23T02:57:57.774Z,8.70
2022-12-23T03:00:24.633Z,8.70
2022-12-23T03:02:51.520Z,8.70
2022-12-23T03:05:39.164Z,8.70
2022-12-23T03:08:13.965Z,8.70
2022-12-23T03:10:49.630Z,8.70
2022-12-23T03:13:19.449Z,8.70
2022-12-23T03:15:53.978Z,8.70
2022-12-23T03:18:41.101Z,8.70
2022-12-23T03:21:20.201Z,8.70
2022-12-23T03:24:01.229Z,8.70
2022-12-23T03:26:40.524Z,8.70
2022-12-23T03:29:37.567Z,8.70
2022-12-23T03:32:05.373Z,8.70
2022-12-23T03:34:39.282Z,8.70
2022-12-23T03:37:09.500Z,8.60
2022-12-23T03:39:46.632Z,8.60
2022-12-23T03:42:38.684Z,8.60
2022-12-23T03:48:05.377Z,8.50
2022-12-23T03:50:33.545Z,8.50
2022-12-23T03:53:02.008Z,8.50
2022-12-23T03:55:36.135Z,8.60
2022-12-23T03:58:11.920Z,8.60
2022-12-23T04:00:45.725Z,8.60
2022-12-23T04:03:31.234Z,8.70
2022-12-23T04:06:01.749Z,8.70
2022-12-23T04:08:35.774Z,8.70
2022-12-23T04:11:03.511Z,8.70
2022-12-23T04:13:31.215Z,8.70
2022-12-23T04:16:02.461Z,8.80
2022-12-23T04:18:29.579Z,8.80
2022-12-23T04:20:56.370Z,8.80
2022-12-23T04:23:23.308Z,8.80
2022-12-23T04:25:50.096Z,8.80
2022-12-23T04:28:18.232Z,8.80
2022-12-23T04:30:44.928Z,8.80
2022-12-23T04:33:12.435Z,8.80
2022-12-23T04:35:39.221Z,8.80
2022-12-23T04:38:06.231Z,8.80
2022-12-23T04:40:33.009Z,8.80
2022-12-23T04:42:59.745Z,8.80
2022-12-23T04:45:26.499Z,8.80
2022-12-23T04:47:54.538Z,8.90
2022-12-23T04:50:21.351Z,8.90
2022-12-23T04:52:48.048Z,8.90
2022-12-23T04:55:14.816Z,8.90
2022-12-23T04:57:41.582Z,8.90
2022-12-23T05:00:09.915Z,8.90
2022-12-23T05:02:36.719Z,8.90
2022-12-23T05:05:04.155Z,8.90
2022-12-23T05:07:30.876Z,8.90
2022-12-23T05:10:01.743Z,8.90
2022-12-23T05:12:31.931Z,8.90
2022-12-23T05:14:58.693Z,8.90
2022-12-23T05:17:25.459Z,8.90
2022-12-23T05:19:52.455Z,8.90
2022-12-23T05:22:19.237Z,8.90
2022-12-23T05:24:46.091Z,8.90
2022-12-23T05:27:12.877Z,9.00
2022-12-23T05:29:39.644Z,8.90
2022-12-23T05:32:06.484Z,9.00
2022-12-23T05:34:33.268Z,8.90
2022-12-23T05:37:00.087Z,9.00
2022-12-23T05:39:26.782Z,8.90
2022-12-23T05:41:53.593Z,8.90
2022-12-23T05:44:20.299Z,8.90
2022-12-23T05:46:47.047Z,8.90
2022-12-23T05:49:13.830Z,8.90
2022-12-23T05:51:40.593Z,8.90
2022-12-23T05:54:07.351Z,8.80
2022-12-23T05:56:34.096Z,8.80
2022-12-23T05:59:00.853Z,8.80
2022-12-23T06:01:27.637Z,8.80
2022-12-23T06:03:54.557Z,8.90
2022-12-23T06:06:21.302Z,8.80
2022-12-23T06:08:48.031Z,8.80
2022-12-23T06:11:14.834Z,8.80
2022-12-23T06:13:41.563Z,8.80
2022-12-23T06:16:08.273Z,8.80
2022-12-23T06:18:35.048Z,8.90
2022-12-23T06:21:01.787Z,8.90
2022-12-23T06:23:28.553Z,8.90
2022-12-23T06:26:02.267Z,8.80
2022-12-23T06:28:29.350Z,8.90
2022-12-23T06:30:57.267Z,8.90
2022-12-23T06:33:24.991Z,9.00
2022-12-23T06:35:51.995Z,9.00
2022-12-23T06:38:18.875Z,9.00
2022-12-23T06:40:45.705Z,9.00
2022-12-23T06:43:13.469Z,9.00
2022-12-23T06:45:40.827Z,9.00
2022-12-23T06:48:07.813Z,9.00
2022-12-23T06:50:34.599Z,9.00
2022-12-23T06:53:01.416Z,9.10
2022-12-23T06:55:28.154Z,9.10
2022-12-23T06:57:54.861Z,9.10
2022-12-23T07:00:21.615Z,9.10
2022-12-23T07:02:48.385Z,9.10
2022-12-23T07:05:15.458Z,9.10
2022-12-23T07:07:42.230Z,9.10
2022-12-23T07:10:09.824Z,9.10
2022-12-23T07:12:36.632Z,9.10
2022-12-23T07:15:03.552Z,9.10
2022-12-23T07:17:30.528Z,9.10
2022-12-23T07:19:57.275Z,9.10
2022-12-23T07:22:24.204Z,9.10
2022-12-23T07:24:50.898Z,9.10
2022-12-23T07:27:17.613Z,9.10
2022-12-23T07:29:44.434Z,9.20
2022-12-23T07:32:11.257Z,9.20
2022-12-23T07:34:38.059Z,9.20
2022-12-23T07:37:04.778Z,9.20
2022-12-23T07:39:31.492Z,9.20
2022-12-23T07:42:25.022Z,9.20
2022-12-23T07:44:44.851Z,9.20
2022-12-23T07:47:11.474Z,9.20
2022-12-23T07:49:38.092Z,9.20
2022-12-23T07:52:04.694Z,9.20
2022-12-23T07:54:31.395Z,9.30
2022-12-23T07:56:58.180Z,9.30
2022-12-23T07:59:27.957Z,9.30
2022-12-23T08:01:54.766Z,9.40
2022-12-23T08:04:21.826Z,9.40
2022-12-23T08:06:48.673Z,9.40
2022-12-23T08:09:15.556Z,9.50
2022-12-23T08:11:42.301Z,9.50
2022-12-23T08:14:09.134Z,9.50
2022-12-23T08:16:43.109Z,9.60
2022-12-23T08:19:10.635Z,9.60
2022-12-23T08:21:37.428Z,9.60
2022-12-23T08:24:04.393Z,9.60
2022-12-23T08:26:35.311Z,9.70
2022-12-23T08:29:02.138Z,9.70
2022-12-23T08:31:33.907Z,9.80
2022-12-23T08:34:01.444Z,9.80
2022-12-23T08:36:31.946Z,9.90
2022-12-23T08:39:01.014Z,10.00
2022-12-23T08:41:34.163Z,10.00
2022-12-23T08:44:01.075Z,10.10
2022-12-23T08:46:28.477Z,10.10
2022-12-23T08:48:55.611Z,10.10
2022-12-23T08:51:24.511Z,10.10
2022-12-23T08:53:57.927Z,10.20
2022-12-23T08:56:35.847Z,10.20
2022-12-23T08:59:03.677Z,10.30
2022-12-23T09:01:33.009Z,10.30
2022-12-23T09:04:06.142Z,10.30
2022-12-23T09:06:37.221Z,10.30
2022-12-23T09:09:05.230Z,10.30
2022-12-23T09:11:33.733Z,10.40
2022-12-23T09:14:02.181Z,10.40
2022-12-23T09:16:29.715Z,10.40
2022-12-23T09:18:57.155Z,10.40
2022-12-23T09:21:24.622Z,10.40
2022-12-23T09:23:52.329Z,10.40
2022-12-23T09:26:28.604Z,10.50
2022-12-23T09:28:56.349Z,10.50
2022-12-23T09:31:25.306Z,10.50
2022-12-23T09:33:54.844Z,10.50
2022-12-23T09:36:22.506Z,10.60
2022-12-23T09:38:55.190Z,10.60
2022-12-23T09:41:52.223Z,10.60
2022-12-23T09:44:30.601Z,10.60
2022-12-23T09:47:02.147Z,10.60
2022-12-23T09:49:29.210Z,10.60
2022-12-23T09:52:02.562Z,10.60
2022-12-23T09:54:34.708Z,10.70
2022-12-23T09:57:28.514Z,10.70
2022-12-23T10:00:10.578Z,10.70
2022-12-23T10:03:06.588Z,10.70
2022-12-23T10:05:52.985Z,10.70
2022-12-23T10:08:34.520Z,10.80
2022-12-23T10:11:14.098Z,10.80
2022-12-23T10:14:12.130Z,10.80
2022-12-23T10:16:42.784Z,10.80
2022-12-23T10:19:25.358Z,10.80
2022-12-23T10:22:00.673Z,10.80
2022-12-23T10:24:36.391Z,10.80
2022-12-23T10:27:32.594Z,10.80
2022-12-23T10:30:33.669Z,10.80
2022-12-23T10:33:04.775Z,10.80
2022-12-23T10:35:46.660Z,10.80
2022-12-23T10:38:38.200Z,10.90
2022-12-23T10:41:28.031Z,10.90
2022-12-23T10:44:21.225Z,10.90
2022-12-23T10:46:50.856Z,10.90
2022-12-23T10:49:32.633Z,11.00
2022-12-23T10:52:08.931Z,11.00
2022-12-23T10:54:37.479Z,11.00
2022-12-23T10:57:07.006Z,10.90
2022-12-23T10:59:36.652Z,10.90
2022-12-23T11:02:12.900Z,10.90
2022-12-23T11:04:45.916Z,10.80
2022-12-23T11:07:43.931Z,10.80
2022-12-23T11:10:32.738Z,10.80
2022-12-23T11:13:00.692Z,10.80
2022-12-23T11:15:41.394Z,10.70
2022-12-23T11:18:11.255Z,10.80
2022-12-23T11:20:40.254Z,10.80
2022-12-23T11:23:27.080Z,10.90
2022-12-23T11:26:04.237Z,10.90
2022-12-23T11:28:32.692Z,10.90
2022-12-23T11:31:12.276Z,10.90
2022-12-23T11:33:46.128Z,10.90
2022-12-23T11:36:12.771Z,10.90
2022-12-23T11:39:03.793Z,10.90
2022-12-23T11:41:43.384Z,10.90
2022-12-23T11:44:15.897Z,11.00
2022-12-23T11:46:42.615Z,11.00
2022-12-23T11:49:23.105Z,11.00
2022-12-23T11:52:10.035Z,11.00
2022-12-23T11:54:37.256Z,11.00
2022-12-23T11:57:08.635Z,11.00
2022-12-23T11:59:42.101Z,10.90
2022-12-23T12:02:33.658Z,11.00
2022-12-23T12:05:04.337Z,10.90
2022-12-23T12:07:32.037Z,11.00
2022-12-23T12:10:01.236Z,10.90
2022-12-23T12:12:29.761Z,10.90
2022-12-23T12:15:00.334Z,10.90
2022-12-23T12:17:41.373Z,10.90
2022-12-23T12:20:22.797Z,10.90
2022-12-23T12:23:11.180Z,10.80
2022-12-23T12:25:50.599Z,10.80
2022-12-23T12:28:24.987Z,10.80
2022-12-23T12:30:59.384Z,10.80
2022-12-23T12:33:35.761Z,10.80
2022-12-23T12:36:32.168Z,10.70
2022-12-23T12:39:00.253Z,10.60
2022-12-23T12:41:37.664Z,10.60
2022-12-23T12:44:16.372Z,10.60
2022-12-23T12:46:51.426Z,10.60
2022-12-23T12:49:41.169Z,10.60
2022-12-23T12:52:19.355Z,10.50
2022-12-23T12:54:53.506Z,10.50
2022-12-23T12:57:22.757Z,10.50
2022-12-23T12:59:54.871Z,10.50
2022-12-23T13:02:47.572Z,10.50
2022-12-23T13:05:39.161Z,10.40
2022-12-23T13:08:21.350Z,10.50
2022-12-23T13:11:08.904Z,10.40
2022-12-23T13:14:04.108Z,10.40
2022-12-23T13:16:41.776Z,10.40
2022-12-23T13:19:14.111Z,10.40
2022-12-23T13:22:01.532Z,10.40
2022-12-23T13:24:50.029Z,10.40
2022-12-23T13:28:04.882Z,10.30
2022-12-23T13:30:43.760Z,10.30
2022-12-23T13:33:30.963Z,10.30
2022-12-23T13:36:23.814Z,10.30
2022-12-23T13:39:22.395Z,10.30
2022-12-23T13:41:58.550Z,10.30
2022-12-23T13:44:30.423Z,10.30
2022-12-23T13:47:15.422Z,10.30
2022-12-23T13:49:53.898Z,10.30
2022-12-23T13:52:47.549Z,10.30
2022-12-23T13:55:36.894Z,10.20
2022-12-23T13:58:17.299Z,10.20
2022-12-23T14:00:44.921Z,10.20
2022-12-23T14:03:12.701Z,10.20
2022-12-23T14:05:41.994Z,10.10
2022-12-23T14:08:23.280Z,10.10
2022-12-23T14:11:17.986Z,10.10
2022-12-23T14:13:50.838Z,10.10
2022-12-23T14:16:40.618Z,10.10
2022-12-23T14:19:38.422Z,10.10
2022-12-23T14:22:26.433Z,10.10
2022-12-23T14:25:05.220Z,10.00
2022-12-23T14:27:50.169Z,10.10
2022-12-23T14:30:42.716Z,10.10
2022-12-23T14:33:18.353Z,10.00
2022-12-23T14:35:45.071Z,10.10
2022-12-23T14:38:14.928Z,10.00
2022-12-23T14:40:53.557Z,10.00
2022-12-23T14:43:23.466Z,10.00
2022-12-23T14:45:51.516Z,10.00
2022-12-23T14:48:33.627Z,10.00
2022-12-23T14:51:09.008Z,10.00
2022-12-23T14:53:58.883Z,10.00
2022-12-23T14:56:40.912Z,9.90
2022-12-23T14:59:30.240Z,9.90
2022-12-23T15:02:16.254Z,9.90
2022-12-23T15:04:50.716Z,9.90
2022-12-23T15:07:40.739Z,9.90
2022-12-23T15:10:25.934Z,9.90
2022-12-23T15:12:56.855Z,9.80
2022-12-23T15:15:26.563Z,9.80
2022-12-23T15:18:02.319Z,9.90
2022-12-23T15:20:29.158Z,9.90
2022-12-23T15:23:00.775Z,9.90
2022-12-23T15:25:33.472Z,9.80
2022-12-23T15:28:03.109Z,9.80
2022-12-23T15:30:37.375Z,9.90
2022-12-23T15:33:21.798Z,9.90
2022-12-23T15:35:54.023Z,9.80
2022-12-23T15:38:27.198Z,9.80
2022-12-23T15:41:18.616Z,9.80
2022-12-23T15:43:45.456Z,9.80
2022-12-23T15:46:17.067Z,9.80
2022-12-23T15:48:44.120Z,9.80
2022-12-23T15:51:49.701Z,9.80
2022-12-23T15:54:08.505Z,9.80
2022-12-23T15:56:38.769Z,9.80
2022-12-23T15:59:15.248Z,9.80
2022-12-23T16:01:42.272Z,9.80
2022-12-23T16:04:17.565Z,9.80
2022-12-23T16:06:49.868Z,9.80
2022-12-23T16:09:16.505Z,9.80
2022-12-23T16:11:56.467Z,9.80
2022-12-23T16:14:35.962Z,9.80
2022-12-23T16:17:08.661Z,9.80
2022-12-23T16:19:45.732Z,9.80
2022-12-23T16:22:34.469Z,9.80
2022-12-23T16:25:19.446Z,9.80
2022-12-23T16:27:56.363Z,9.80
2022-12-23T16:30:29.246Z,9.80
2022-12-23T16:32:58.331Z,9.90
2022-12-23T16:35:40.290Z,9.90
2022-12-23T16:38:23.309Z,9.90
2022-12-23T16:40:56.170Z,9.90
2022-12-23T16:43:24.928Z,9.90
2022-12-23T16:45:55.001Z,9.90
2022-12-23T16:48:38.316Z,9.90
2022-12-23T16:51:13.821Z,9.90
2022-12-23T16:53:40.591Z,9.90
2022-12-23T16:56:17.886Z,9.90
2022-12-23T16:58:45.057Z,9.90
2022-12-23T17:01:36.691Z,9.90
2022-12-23T17:04:04.894Z,9.90
2022-12-23T17:06:31.623Z,9.90
2022-12-23T17:08:58.346Z,9.90
2022-12-23T17:11:28.052Z,9.90
2022-12-23T17:14:01.377Z,9.90
2022-12-23T17:16:30.862Z,9.90
2022-12-23T17:18:57.799Z,9.90
2022-12-23T17:21:26.060Z,9.90
2022-12-23T17:23:54.535Z,9.90
2022-12-23T17:26:21.314Z,10.00
2022-12-23T17:28:48.070Z,10.00
2022-12-23T17:31:26.591Z,10.00
2022-12-23T17:33:54.489Z,10.10
2022-12-23T17:36:21.916Z,10.10
2022-12-23T17:38:48.789Z,10.10
2022-12-23T17:41:31.143Z,10.20
2022-12-23T17:43:58.359Z,10.20
2022-12-23T17:46:26.375Z,10.20
2022-12-23T17:48:53.418Z,10.30
2022-12-23T17:51:22.649Z,10.30
2022-12-23T17:53:56.803Z,10.40
2022-12-23T17:56:25.064Z,10.40
2022-12-23T17:58:51.885Z,10.50
2022-12-23T18:01:28.042Z,10.50
2022-12-23T18:03:55.750Z,10.50
2022-12-23T18:06:23.977Z,10.50
2022-12-23T18:08:51.310Z,10.50
2022-12-23T18:11:33.085Z,10.60
2022-12-23T18:14:00.454Z,10.60
2022-12-23T18:16:27.508Z,10.70
2022-12-23T18:18:54.370Z,10.70
2022-12-23T18:21:24.125Z,10.80
2022-12-23T18:23:53.411Z,10.80
2022-12-23T18:26:20.364Z,10.80
2022-12-23T18:28:47.095Z,10.80
2022-12-23T18:31:20.231Z,10.90
2022-12-23T18:33:47.817Z,10.90
2022-12-23T18:36:28.286Z,10.90
2022-12-23T18:38:56.997Z,11.00
2022-12-23T18:41:24.642Z,11.00
2022-12-23T18:43:51.697Z,11.00
2022-12-23T18:46:20.210Z,11.00
2022-12-23T18:48:47.353Z,11.00
2022-12-23T18:51:20.302Z,11.10
2022-12-23T18:53:48.249Z,11.10
2022-12-23T18:56:16.629Z,11.10
2022-12-23T18:58:43.479Z,11.10
2022-12-23T19:01:15.756Z,11.20
2022-12-23T19:03:43.026Z,11.20
2022-12-23T19:06:12.851Z,11.20
2022-12-23T19:08:40.679Z,11.20
2022-12-23T19:11:18.837Z,11.20
2022-12-23T19:13:46.911Z,11.20
2022-12-23T19:16:19.462Z,11.10
2022-12-23T19:18:47.807Z,11.10
2022-12-23T19:21:15.623Z,11.20
2022-12-23T19:23:43.112Z,11.20
2022-12-23T19:26:11.712Z,11.10
2022-12-23T19:28:38.928Z,11.10
2022-12-23T19:31:14.326Z,11.10
2022-12-23T19:33:43.197Z,11.10
2022-12-23T19:36:22.775Z,11.10
2022-12-23T19:38:49.897Z,11.00
2022-12-23T19:41:17.075Z,11.00
2022-12-23T19:43:46.004Z,11.00
2022-12-23T19:46:14.386Z,11.00
2022-12-23T19:48:41.539Z,11.00
2022-12-23T19:51:10.891Z,11.00
2022-12-23T19:53:40.138Z,10.90
2022-12-23T19:56:08.277Z,10.90
2022-12-23T19:58:36.769Z,10.90
2022-12-23T20:01:15.007Z,11.00
2022-12-23T20:03:43.453Z,11.10
2022-12-23T20:06:39.435Z,11.10
2022-12-23T20:09:07.824Z,11.10
2022-12-23T20:11:37.323Z,11.10
2022-12-23T20:14:05.423Z,11.10
2022-12-23T20:16:33.128Z,11.10
2022-12-23T20:18:59.963Z,11.00
2022-12-23T20:21:26.785Z,11.00
2022-12-23T20:23:53.757Z,11.00
2022-12-23T20:26:21.475Z,11.00
2022-12-23T20:28:48.269Z,11.00
2022-12-23T20:31:29.962Z,11.00
2022-12-23T20:33:57.612Z,11.10
2022-12-23T20:36:30.524Z,11.10
2022-12-23T20:38:57.776Z,11.10
2022-12-23T20:41:27.159Z,11.00
2022-12-23T20:44:31.829Z,11.00
2022-12-23T20:46:41.299Z,11.00
2022-12-23T20:49:08.117Z,11.00
2022-12-23T20:51:34.864Z,11.00
2022-12-23T20:54:01.687Z,10.90
2022-12-23T20:56:30.223Z,10.90
2022-12-23T20:58:59.032Z,10.90
2022-12-23T21:01:33.610Z,10.90
2022-12-23T21:04:02.556Z,10.90
2022-12-23T21:06:30.869Z,10.90
2022-12-23T21:08:59.695Z,11.00
2022-12-23T21:11:31.447Z,11.00
2022-12-23T21:14:06.438Z,11.00
2022-12-23T21:16:35.730Z,11.00
2022-12-23T21:19:03.359Z,10.90
2022-12-23T21:21:31.790Z,10.90
2022-12-23T21:24:01.698Z,10.90
2022-12-23T21:26:30.263Z,10.90
2022-12-23T21:28:59.430Z,10.90
2022-12-23T21:31:28.016Z,10.90
2022-12-23T21:33:55.004Z,10.90
2022-12-23T21:36:26.508Z,11.00
2022-12-23T21:38:53.672Z,11.00
2022-12-23T21:41:31.708Z,11.00
2022-12-23T21:43:59.157Z,10.90
2022-12-23T21:46:27.613Z,10.90
2022-12-23T21:48:56.091Z,10.90
2022-12-23T21:51:26.043Z,10.90
2022-12-23T21:53:56.011Z,10.90
2022-12-23T21:56:26.014Z,11.00
2022-12-23T21:59:00.745Z,11.00
2022-12-23T22:01:28.287Z,10.90
2022-12-23T22:03:56.137Z,11.00
2022-12-23T22:06:25.286Z,11.00
2022-12-23T22:08:53.911Z,10.90
2022-12-23T22:11:23.886Z,10.90
2022-12-23T22:13:50.959Z,10.80
2022-12-23T22:16:23.031Z,10.80
2022-12-23T22:18:50.591Z,10.80
2022-12-23T22:21:20.582Z,10.80
2022-12-23T22:23:48.545Z,10.80
2022-12-23T22:26:24.242Z,10.70
2022-12-23T22:28:56.196Z,10.70
2022-12-23T22:31:35.457Z,10.70
2022-12-23T22:34:02.963Z,10.60
2022-12-23T22:36:30.461Z,10.60
2022-12-23T22:38:59.485Z,10.50
2022-12-23T22:41:28.154Z,10.50
2022-12-23T22:43:55.449Z,10.50
2022-12-23T22:46:24.329Z,10.40
2022-12-23T22:48:51.982Z,10.40
2022-12-23T22:51:22.799Z,10.40
2022-12-23T22:53:49.642Z,10.40
2022-12-23T22:56:18.299Z,10.40
2022-12-23T22:58:45.254Z,10.30
2022-12-23T23:01:33.370Z,10.40
2022-12-23T23:04:02.161Z,10.30
2022-12-23T23:06:31.893Z,10.40
2022-12-23T23:08:58.714Z,10.40
2022-12-23T23:11:26.954Z,10.30
2022-12-23T23:13:54.321Z,10.30
2022-12-23T23:16:21.215Z,10.30
2022-12-23T23:18:48.686Z,10.20
2022-12-23T23:21:15.771Z,10.30
2022-12-23T23:23:42.761Z,10.30
2022-12-23T23:26:10.325Z,10.30
2022-12-23T23:28:39.308Z,10.40
2022-12-23T23:31:39.914Z,10.40
2022-12-23T23:33:53.624Z,10.40
2022-12-23T23:36:20.694Z,10.40
2022-12-23T23:38:47.507Z,10.40
2022-12-23T23:41:20.498Z,10.40
2022-12-23T23:43:49.582Z,10.30
2022-12-23T23:46:16.472Z,10.30
2022-12-23T23:48:43.227Z,10.30
2022-12-23T23:51:10.024Z,10.20
2022-12-23T23:53:36.912Z,10.30
2022-12-23T23:56:06.132Z,10.30
2022-12-23T23:58:33.329Z,10.30
